createdAt,value
2019-02-03T00:00:31.386Z,4.59
2019-02-03T00:01:31.420Z,4.58
2019-02-03T00:02:31.454Z,4.55
2019-02-03T00:03:31.525Z,4.62
2019-02-03T00:04:31.539Z,4.51
2019-02-03T00:05:31.585Z,4.55
2019-02-03T00:06:31.619Z,4.55
2019-02-03T00:07:31.680Z,4.65
2019-02-03T00:08:31.728Z,4.57
2019-02-03T00:09:31.745Z,4.50
2019-02-03T00:10:31.797Z,4.50
2019-02-03T00:11:31.832Z,4.50
2019-02-03T00:12:31.870Z,4.43
2019-02-03T00:13:32.017Z,4.47
2019-02-03T00:14:31.962Z,4.43
2019-02-03T00:15:31.991Z,4.62
2019-02-03T00:16:32.033Z,4.59
2019-02-03T00:17:32.073Z,4.51
2019-02-03T00:18:32.136Z,4.51
2019-02-03T00:19:32.158Z,4.51
2019-02-03T00:20:32.276Z,4.47
2019-02-03T00:21:32.254Z,4.46
2019-02-03T00:22:32.279Z,4.46
2019-02-03T00:23:32.359Z,4.50
2019-02-03T00:24:32.376Z,4.47
2019-02-03T00:25:32.405Z,4.61
2019-02-03T00:26:32.448Z,4.62
2019-02-03T00:27:32.491Z,4.51
2019-02-03T00:28:32.550Z,4.55
2019-02-03T00:29:32.601Z,4.54
2019-02-03T00:30:32.618Z,4.50
2019-02-03T00:31:32.653Z,4.50
2019-02-03T00:32:32.695Z,4.51
2019-02-03T00:33:32.737Z,4.51
2019-02-03T00:34:32.835Z,4.50
2019-02-03T00:35:32.820Z,4.51
2019-02-03T00:36:32.869Z,4.55
2019-02-03T00:37:32.909Z,4.52
2019-02-03T00:38:32.956Z,4.51
2019-02-03T00:39:33.023Z,4.54
2019-02-03T00:40:33.031Z,4.47
2019-02-03T00:41:33.114Z,4.51
2019-02-03T00:42:33.986Z,4.43
2019-02-03T00:43:33.150Z,4.37
2019-02-03T00:44:33.222Z,4.43
2019-02-03T00:45:33.251Z,4.50
2019-02-03T00:46:33.988Z,4.43
2019-02-03T00:47:33.323Z,4.47
2019-02-03T00:48:33.360Z,4.42
2019-02-03T00:49:33.399Z,4.40
2019-02-03T00:50:33.838Z,4.50
2019-02-03T00:51:33.493Z,4.40
2019-02-03T00:52:33.531Z,4.39
2019-02-03T00:53:33.568Z,4.44
2019-02-03T00:54:33.607Z,4.39
2019-02-03T00:55:33.700Z,4.40
2019-02-03T00:56:33.688Z,4.42
2019-02-03T00:57:33.732Z,4.37
2019-02-03T00:58:33.771Z,4.33
2019-02-03T00:59:33.828Z,4.50
2019-02-03T01:00:33.878Z,4.39
2019-02-03T01:01:33.900Z,4.36
2019-02-03T01:02:33.944Z,4.39
2019-02-03T01:03:33.983Z,4.37
2019-02-03T01:04:34.032Z,4.40
2019-02-03T01:05:34.089Z,4.42
2019-02-03T01:06:34.117Z,4.34
2019-02-03T01:07:34.152Z,4.40
2019-02-03T01:08:34.195Z,4.39
2019-02-03T01:09:34.236Z,4.40
2019-02-03T01:10:34.292Z,4.46
2019-02-03T01:11:34.337Z,4.40
2019-02-03T01:12:34.479Z,4.44
2019-02-03T01:13:34.394Z,4.50
2019-02-03T01:14:34.436Z,4.40
2019-02-03T01:15:34.490Z,4.39
2019-02-03T01:16:34.548Z,4.42
2019-02-03T01:17:34.560Z,4.40
2019-02-03T01:18:34.606Z,4.39
2019-02-03T01:19:34.647Z,4.44
2019-02-03T01:20:34.685Z,4.44
2019-02-03T01:21:34.759Z,4.43
2019-02-03T01:22:34.778Z,4.50
2019-02-03T01:23:34.839Z,4.50
2019-02-03T01:24:34.853Z,4.51
2019-02-03T01:25:34.941Z,4.54
2019-02-03T01:26:34.971Z,4.52
2019-02-03T01:27:34.986Z,4.54
2019-02-03T01:28:35.023Z,4.54
2019-02-03T01:29:35.064Z,4.50
2019-02-03T01:30:35.101Z,4.46
2019-02-03T01:31:35.176Z,4.36
2019-02-03T01:32:35.213Z,4.40
2019-02-03T01:33:35.235Z,4.43
2019-02-03T01:34:35.272Z,4.40
2019-02-03T01:35:35.313Z,4.37
2019-02-03T01:36:35.379Z,4.40
2019-02-03T01:37:39.509Z,4.39
2019-02-03T01:38:35.448Z,4.39
2019-02-03T01:39:35.532Z,4.42
2019-02-03T01:40:35.522Z,4.40
2019-02-03T01:41:35.582Z,4.43
2019-02-03T01:42:35.630Z,4.50
2019-02-03T01:43:35.648Z,4.39
2019-02-03T01:44:35.694Z,4.44
2019-02-03T01:45:35.727Z,4.34
2019-02-03T01:46:35.776Z,4.39
2019-02-03T01:47:35.827Z,4.44
2019-02-03T01:48:35.905Z,4.42
2019-02-03T01:49:35.895Z,4.40
2019-02-03T01:50:35.940Z,4.40
2019-02-03T01:51:35.983Z,4.42
2019-02-03T01:52:36.042Z,4.39
2019-02-03T01:53:36.121Z,4.33
2019-02-03T01:54:36.106Z,4.54
2019-02-03T01:55:36.154Z,4.51
2019-02-03T01:56:36.183Z,4.42
2019-02-03T01:57:36.249Z,4.43
2019-02-03T01:58:36.268Z,4.37
2019-02-03T01:59:36.317Z,4.39
2019-02-03T02:00:36.361Z,4.39
2019-02-03T02:01:36.399Z,4.40
2019-02-03T02:02:36.467Z,4.37
2019-02-03T02:03:36.500Z,4.42
2019-02-03T02:04:36.523Z,4.42
2019-02-03T02:05:36.562Z,4.40
2019-02-03T02:06:36.604Z,4.40
2019-02-03T02:07:36.690Z,4.40
2019-02-03T02:08:36.731Z,4.36
2019-02-03T02:09:36.747Z,4.37
2019-02-03T02:10:36.788Z,4.40
2019-02-03T02:11:36.813Z,4.37
2019-02-03T02:12:37.547Z,4.29
2019-02-03T02:13:36.937Z,4.36
2019-02-03T02:14:36.939Z,4.34
2019-02-03T02:15:36.981Z,4.39
2019-02-03T02:16:37.121Z,4.39
2019-02-03T02:17:37.061Z,4.39
2019-02-03T02:18:37.126Z,4.34
2019-02-03T02:19:37.146Z,4.34
2019-02-03T02:20:37.193Z,4.33
2019-02-03T02:21:37.252Z,4.33
2019-02-03T02:22:37.273Z,4.33
2019-02-03T02:23:37.446Z,4.34
2019-02-03T02:24:37.395Z,4.28
2019-02-03T02:25:37.394Z,4.25
2019-02-03T02:26:37.436Z,4.19
2019-02-03T02:27:37.484Z,4.28
2019-02-03T02:28:37.543Z,4.26
2019-02-03T02:29:37.581Z,4.24
2019-02-03T02:30:37.621Z,4.33
2019-02-03T02:31:37.647Z,4.29
2019-02-03T02:32:37.691Z,4.25
2019-02-03T02:33:37.745Z,4.28
2019-02-03T02:34:37.790Z,4.25
2019-02-03T02:35:37.813Z,4.32
2019-02-03T02:36:37.853Z,4.25
2019-02-03T02:37:37.940Z,4.24
2019-02-03T02:38:37.935Z,4.32
2019-02-03T02:39:38.003Z,4.39
2019-02-03T02:40:38.033Z,4.29
2019-02-03T02:41:38.065Z,4.26
2019-02-03T02:42:38.103Z,4.32
2019-02-03T02:43:38.989Z,4.26
2019-02-03T02:44:38.327Z,4.33
2019-02-03T02:45:38.231Z,4.36
2019-02-03T02:46:38.270Z,4.26
2019-02-03T02:47:38.313Z,4.39
2019-02-03T02:48:38.354Z,4.28
2019-02-03T02:49:38.424Z,4.39
2019-02-03T02:50:38.447Z,4.34
2019-02-03T02:51:38.524Z,4.33
2019-02-03T02:52:38.522Z,4.36
2019-02-03T02:53:38.560Z,4.33
2019-02-03T02:54:38.650Z,4.34
2019-02-03T02:55:38.660Z,4.28
2019-02-03T02:56:38.703Z,4.36
2019-02-03T02:57:38.725Z,4.29
2019-02-03T02:58:38.769Z,4.26
2019-02-03T02:59:38.828Z,4.32
2019-02-03T03:00:39.492Z,4.37
2019-02-03T03:01:38.893Z,4.26
2019-02-03T03:02:38.944Z,4.18
2019-02-03T03:03:38.977Z,4.18
2019-02-03T03:04:39.035Z,4.25
2019-02-03T03:05:39.099Z,4.24
2019-02-03T03:06:39.098Z,4.16
2019-02-03T03:07:39.143Z,4.22
2019-02-03T03:08:39.193Z,4.25
2019-02-03T03:09:39.231Z,4.28
2019-02-03T03:10:39.303Z,4.19
2019-02-03T03:11:39.314Z,4.21
2019-02-03T03:12:39.374Z,4.19
2019-02-03T03:13:39.401Z,4.10
2019-02-03T03:14:39.431Z,4.07
2019-02-03T03:15:39.503Z,4.14
2019-02-03T03:16:39.631Z,4.10
2019-02-03T03:17:39.580Z,4.16
2019-02-03T03:18:39.600Z,4.03
2019-02-03T03:19:39.645Z,4.10
2019-02-03T03:20:39.714Z,4.04
2019-02-03T03:21:39.719Z,4.01
2019-02-03T03:22:39.764Z,4.06
2019-02-03T03:23:39.813Z,4.03
2019-02-03T03:24:39.883Z,4.08
2019-02-03T03:25:39.918Z,4.04
2019-02-03T03:26:39.954Z,4.06
2019-02-03T03:27:40.127Z,4.06
2019-02-03T03:28:40.027Z,4.04
2019-02-03T03:29:40.066Z,4.01
2019-02-03T03:30:40.115Z,4.01
2019-02-03T03:31:40.176Z,3.97
2019-02-03T03:32:40.186Z,4.10
2019-02-03T03:33:40.246Z,3.94
2019-02-03T03:34:40.263Z,3.98
2019-02-03T03:35:40.311Z,3.97
2019-02-03T03:36:40.382Z,3.98
2019-02-03T03:37:40.389Z,3.94
2019-02-03T03:38:40.488Z,3.89
2019-02-03T03:39:40.477Z,3.86
2019-02-03T03:40:40.520Z,3.90
2019-02-03T03:41:40.602Z,3.88
2019-02-03T03:42:40.594Z,3.94
2019-02-03T03:43:40.635Z,3.90
2019-02-03T03:44:40.682Z,3.85
2019-02-03T03:45:40.773Z,3.94
2019-02-03T03:46:40.779Z,3.88
2019-02-03T03:47:40.804Z,3.94
2019-02-03T03:48:40.844Z,3.79
2019-02-03T03:49:40.897Z,3.85
2019-02-03T03:50:40.925Z,3.82
2019-02-03T03:51:41.089Z,3.86
2019-02-03T03:52:41.010Z,3.85
2019-02-03T03:53:41.052Z,3.79
2019-02-03T03:54:41.093Z,3.92
2019-02-03T03:55:41.134Z,3.90
2019-02-03T03:56:41.198Z,3.85
2019-02-03T03:57:41.221Z,3.86
2019-02-03T03:58:41.260Z,3.89
2019-02-03T03:59:41.296Z,3.76
2019-02-03T04:00:41.345Z,3.86
2019-02-03T04:01:41.441Z,3.89
2019-02-03T04:02:41.437Z,3.86
2019-02-03T04:03:41.460Z,3.88
2019-02-03T04:04:41.500Z,3.86
2019-02-03T04:05:41.612Z,3.82
2019-02-03T04:06:41.587Z,3.89
2019-02-03T04:07:41.646Z,3.82
2019-02-03T04:08:45.441Z,3.76
2019-02-03T04:09:41.708Z,3.80
2019-02-03T04:10:41.756Z,3.75
2019-02-03T04:11:42.487Z,3.80
2019-02-03T04:12:41.871Z,3.75
2019-02-03T04:13:41.873Z,3.75
2019-02-03T04:14:41.926Z,3.64
2019-02-03T04:15:42.013Z,3.67
2019-02-03T04:16:41.998Z,3.64
2019-02-03T04:17:42.085Z,3.64
2019-02-03T04:18:42.079Z,3.67
2019-02-03T04:19:42.119Z,3.70
2019-02-03T04:20:42.204Z,3.64
2019-02-03T04:21:42.197Z,3.68
2019-02-03T04:22:42.360Z,3.70
2019-02-03T04:23:42.286Z,3.57
2019-02-03T04:24:43.006Z,3.60
2019-02-03T04:25:42.370Z,3.52
2019-02-03T04:26:42.411Z,3.47
2019-02-03T04:27:42.474Z,3.40
2019-02-03T04:28:42.495Z,3.40
2019-02-03T04:29:42.611Z,3.40
2019-02-03T04:30:42.571Z,3.31
2019-02-03T04:31:42.613Z,3.34
2019-02-03T04:32:42.673Z,3.20
2019-02-03T04:33:42.714Z,3.16
2019-02-03T04:34:42.733Z,3.12
2019-02-03T04:35:43.486Z,3.07
2019-02-03T04:36:42.924Z,3.02
2019-02-03T04:37:42.864Z,2.92
2019-02-03T04:38:42.929Z,2.82
2019-02-03T04:39:42.950Z,2.67
2019-02-03T04:40:42.985Z,2.69
2019-02-03T04:41:43.043Z,2.67
2019-02-03T04:42:43.061Z,2.67
2019-02-03T04:43:43.316Z,2.71
2019-02-03T04:44:43.147Z,2.63
2019-02-03T04:45:43.196Z,2.61
2019-02-03T04:46:43.219Z,2.56
2019-02-03T04:47:43.262Z,2.58
2019-02-03T04:48:43.350Z,2.46
2019-02-03T04:49:43.344Z,2.49
2019-02-03T04:50:43.500Z,2.41
2019-02-03T04:51:43.423Z,2.35
2019-02-03T04:52:43.462Z,2.31
2019-02-03T04:53:43.528Z,2.30
2019-02-03T04:54:43.543Z,2.22
2019-02-03T04:55:43.585Z,2.31
2019-02-03T04:56:43.632Z,2.27
2019-02-03T04:57:43.667Z,2.23
2019-02-03T04:58:43.728Z,2.13
2019-02-03T04:59:43.791Z,2.13
2019-02-03T05:00:43.786Z,2.20
2019-02-03T05:01:43.832Z,2.19
2019-02-03T05:02:43.879Z,2.20
2019-02-03T05:03:43.904Z,2.15
2019-02-03T05:04:43.968Z,2.13
2019-02-03T05:05:43.993Z,2.17
2019-02-03T05:06:44.036Z,2.13
2019-02-03T05:07:44.070Z,2.12
2019-02-03T05:08:44.105Z,2.12
2019-02-03T05:09:44.177Z,2.08
2019-02-03T05:10:44.194Z,2.01
2019-02-03T05:11:44.236Z,2.08
2019-02-03T05:12:44.266Z,2.09
2019-02-03T05:13:44.312Z,2.08
2019-02-03T05:14:44.373Z,2.08
2019-02-03T05:15:44.388Z,2.10
2019-02-03T05:16:44.426Z,2.09
2019-02-03T05:17:44.460Z,2.08
2019-02-03T05:18:44.502Z,2.09
2019-02-03T05:19:44.580Z,2.12
2019-02-03T05:20:44.587Z,2.10
2019-02-03T05:21:44.620Z,2.04
2019-02-03T05:22:44.660Z,1.99
2019-02-03T05:23:45.518Z,1.98
2019-02-03T05:24:44.793Z,1.98
2019-02-03T05:25:44.781Z,1.97
2019-02-03T05:26:44.817Z,1.97
2019-02-03T05:27:44.861Z,2.02
2019-02-03T05:28:44.978Z,2.02
2019-02-03T05:29:44.963Z,2.09
2019-02-03T05:30:45.037Z,2.06
2019-02-03T05:31:45.026Z,2.01
2019-02-03T05:32:45.058Z,1.93
2019-02-03T05:33:45.097Z,1.99
2019-02-03T05:34:45.142Z,1.99
2019-02-03T05:35:45.211Z,2.01
2019-02-03T05:36:45.984Z,2.06
2019-02-03T05:37:45.348Z,2.02
2019-02-03T05:38:45.301Z,2.02
2019-02-03T05:39:45.335Z,2.04
2019-02-03T05:40:45.402Z,1.99
2019-02-03T05:41:45.423Z,1.97
2019-02-03T05:42:45.461Z,1.97
2019-02-03T05:43:45.499Z,1.91
2019-02-03T05:44:45.577Z,1.97
2019-02-03T05:45:45.622Z,1.91
2019-02-03T05:46:45.617Z,1.98
2019-02-03T05:47:45.657Z,1.97
2019-02-03T05:48:45.714Z,1.93
2019-02-03T05:49:45.735Z,1.89
2019-02-03T05:50:45.794Z,1.97
2019-02-03T05:51:45.850Z,1.93
2019-02-03T05:52:45.855Z,1.93
2019-02-03T05:53:45.895Z,1.93
2019-02-03T05:54:45.937Z,2.02
2019-02-03T05:55:46.013Z,1.99
2019-02-03T05:56:46.013Z,1.97
2019-02-03T05:57:46.061Z,1.94
2019-02-03T05:58:46.092Z,1.94
2019-02-03T05:59:46.134Z,1.97
2019-02-03T06:00:46.228Z,1.91
2019-02-03T06:01:46.210Z,1.91
2019-02-03T06:02:46.345Z,1.97
2019-02-03T06:03:46.287Z,1.93
2019-02-03T06:04:46.341Z,1.99
2019-02-03T06:05:46.426Z,1.99
2019-02-03T06:06:46.403Z,1.99
2019-02-03T06:07:46.446Z,1.99
2019-02-03T06:08:46.491Z,1.98
2019-02-03T06:09:46.532Z,1.91
2019-02-03T06:10:46.586Z,1.94
2019-02-03T06:11:46.622Z,1.93
2019-02-03T06:12:46.670Z,1.94
2019-02-03T06:13:46.699Z,1.93
2019-02-03T06:14:46.722Z,1.93
2019-02-03T06:15:46.778Z,1.94
2019-02-03T06:16:46.892Z,1.91
2019-02-03T06:17:46.848Z,1.97
2019-02-03T06:18:46.886Z,2.01
2019-02-03T06:19:46.924Z,1.93
2019-02-03T06:20:46.965Z,1.97
2019-02-03T06:21:47.051Z,1.98
2019-02-03T06:22:47.064Z,1.99
2019-02-03T06:23:47.084Z,1.97
2019-02-03T06:24:47.125Z,1.97
2019-02-03T06:25:47.169Z,1.98
2019-02-03T06:26:47.200Z,1.93
2019-02-03T06:27:47.280Z,1.97
2019-02-03T06:28:47.286Z,1.97
2019-02-03T06:29:47.323Z,1.97
2019-02-03T06:30:47.362Z,1.97
2019-02-03T06:31:47.414Z,2.01
2019-02-03T06:32:47.472Z,1.94
2019-02-03T06:33:47.479Z,1.93
2019-02-03T06:34:47.520Z,1.97
2019-02-03T06:35:47.585Z,1.94
2019-02-03T06:36:47.597Z,1.97
2019-02-03T06:37:47.658Z,2.02
2019-02-03T06:38:48.570Z,1.97
2019-02-03T06:39:48.900Z,1.91
2019-02-03T06:40:47.759Z,1.93
2019-02-03T06:41:47.802Z,1.93
2019-02-03T06:42:47.909Z,1.93
2019-02-03T06:43:47.903Z,1.90
2019-02-03T06:44:47.921Z,1.91
2019-02-03T06:45:47.962Z,1.97
2019-02-03T06:46:48.007Z,1.93
2019-02-03T06:47:48.072Z,1.97
2019-02-03T06:48:48.075Z,1.98
2019-02-03T06:49:48.150Z,1.94
2019-02-03T06:50:48.150Z,1.97
2019-02-03T06:51:48.189Z,1.99
2019-02-03T06:52:48.264Z,2.02
2019-02-03T06:53:48.307Z,1.99
2019-02-03T06:54:48.327Z,1.94
2019-02-03T06:55:48.354Z,1.97
2019-02-03T06:56:48.395Z,1.97
2019-02-03T06:57:48.431Z,1.97
2019-02-03T06:58:48.495Z,1.99
2019-02-03T06:59:51.122Z,2.04
2019-02-03T07:00:48.558Z,2.04
2019-02-03T07:01:48.599Z,2.01
2019-02-03T07:02:48.635Z,2.06
2019-02-03T07:03:48.708Z,1.99
2019-02-03T07:04:48.711Z,1.99
2019-02-03T07:05:48.871Z,2.04
2019-02-03T07:06:48.790Z,2.01
2019-02-03T07:07:48.828Z,2.04
2019-02-03T07:08:48.885Z,2.06
2019-02-03T07:09:59.786Z,2.01
2019-02-03T07:10:48.946Z,2.08
2019-02-03T07:11:48.996Z,2.06
2019-02-03T07:12:49.032Z,2.06
2019-02-03T07:13:49.084Z,2.13
2019-02-03T07:14:49.140Z,2.10
2019-02-03T07:15:49.150Z,2.16
2019-02-03T07:16:49.191Z,2.17
2019-02-03T07:17:49.229Z,2.17
2019-02-03T07:18:49.259Z,2.22
2019-02-03T07:19:49.392Z,2.19
2019-02-03T07:20:49.363Z,2.13
2019-02-03T07:21:49.663Z,2.16
2019-02-03T07:22:49.427Z,2.27
2019-02-03T07:23:49.475Z,2.19
2019-02-03T07:24:49.527Z,2.26
2019-02-03T07:25:49.542Z,2.22
2019-02-03T07:26:49.699Z,2.27
2019-02-03T07:27:49.623Z,2.22
2019-02-03T07:28:49.672Z,2.26
2019-02-03T07:29:49.727Z,2.28
2019-02-03T07:30:49.748Z,2.20
2019-02-03T07:31:49.791Z,2.19
2019-02-03T07:32:49.820Z,2.28
2019-02-03T07:33:49.859Z,2.28
2019-02-03T07:34:50.478Z,2.27
2019-02-03T07:35:49.942Z,2.19
2019-02-03T07:36:49.980Z,2.26
2019-02-03T07:37:50.022Z,2.22
2019-02-03T07:38:50.061Z,2.28
2019-02-03T07:39:50.129Z,2.23
2019-02-03T07:40:50.139Z,2.28
2019-02-03T07:41:50.185Z,2.22
2019-02-03T07:42:50.226Z,2.26
2019-02-03T07:43:50.976Z,2.30
2019-02-03T07:44:50.350Z,2.27
2019-02-03T07:45:50.341Z,2.28
2019-02-03T07:46:50.383Z,2.19
2019-02-03T07:47:50.420Z,2.17
2019-02-03T07:48:50.457Z,2.22
2019-02-03T07:49:50.519Z,2.27
2019-02-03T07:50:50.560Z,2.17
2019-02-03T07:51:50.589Z,2.15
2019-02-03T07:52:50.617Z,2.17
2019-02-03T07:53:50.660Z,2.12
2019-02-03T07:54:50.696Z,2.10
2019-02-03T07:55:50.767Z,2.22
2019-02-03T07:56:50.788Z,2.19
2019-02-03T07:57:50.823Z,2.22
2019-02-03T07:58:51.476Z,2.22
2019-02-03T07:59:50.896Z,2.28
2019-02-03T08:00:50.977Z,2.27
2019-02-03T08:01:50.973Z,2.35
2019-02-03T08:02:51.013Z,2.34
2019-02-03T08:03:51.065Z,2.23
2019-02-03T08:04:51.098Z,2.27
2019-02-03T08:05:51.154Z,2.28
2019-02-03T08:06:51.232Z,2.26
2019-02-03T08:07:51.215Z,2.23
2019-02-03T08:08:51.255Z,2.30
2019-02-03T08:09:51.293Z,2.28
2019-02-03T08:10:51.382Z,2.20
2019-02-03T08:11:51.381Z,2.26
2019-02-03T08:12:52.277Z,2.27
2019-02-03T08:13:51.458Z,2.23
2019-02-03T08:14:52.491Z,2.27
2019-02-03T08:15:51.578Z,2.22
2019-02-03T08:16:51.591Z,2.28
2019-02-03T08:17:51.609Z,2.28
2019-02-03T08:18:51.660Z,2.26
2019-02-03T08:19:51.702Z,2.27
2019-02-03T08:20:51.854Z,2.31
2019-02-03T08:21:51.798Z,2.22
2019-02-03T08:22:51.823Z,2.27
2019-02-03T08:23:51.859Z,2.27
2019-02-03T08:24:51.891Z,2.22
2019-02-03T08:25:51.948Z,2.17
2019-02-03T08:26:51.997Z,2.16
2019-02-03T08:27:52.101Z,2.15
2019-02-03T08:28:52.052Z,2.17
2019-02-03T08:29:52.093Z,2.15
2019-02-03T08:30:52.131Z,2.17
2019-02-03T08:31:52.207Z,2.27
2019-02-03T08:32:52.218Z,2.23
2019-02-03T08:33:52.258Z,2.30
2019-02-03T08:34:52.324Z,2.33
2019-02-03T08:35:52.333Z,2.38
2019-02-03T08:36:52.402Z,2.30
2019-02-03T08:37:52.427Z,2.26
2019-02-03T08:38:52.446Z,2.28
2019-02-03T08:39:52.493Z,2.27
2019-02-03T08:40:52.530Z,2.23
2019-02-03T08:41:52.662Z,2.26
2019-02-03T08:42:55.649Z,2.30
2019-02-03T08:43:52.655Z,2.28
2019-02-03T08:44:53.475Z,2.31
2019-02-03T08:45:52.751Z,2.31
2019-02-03T08:46:52.766Z,2.28
2019-02-03T08:47:52.828Z,2.22
2019-02-03T08:48:52.850Z,2.31
2019-02-03T08:49:53.499Z,2.27
2019-02-03T08:50:52.929Z,2.26
2019-02-03T08:51:52.973Z,2.20
2019-02-03T08:52:53.034Z,2.27
2019-02-03T08:53:53.475Z,2.34
2019-02-03T08:54:58.360Z,2.35
2019-02-03T08:55:53.126Z,2.34
2019-02-03T08:56:53.164Z,2.28
2019-02-03T08:57:53.227Z,2.41
2019-02-03T08:58:53.258Z,2.35
2019-02-03T08:59:53.288Z,2.31
2019-02-03T09:00:53.322Z,2.33
2019-02-03T09:01:53.371Z,2.37
2019-02-03T09:02:53.440Z,2.41
2019-02-03T09:03:53.448Z,2.45
2019-02-03T09:04:53.489Z,2.40
2019-02-03T09:05:53.534Z,2.48
2019-02-03T09:06:54.298Z,2.48
2019-02-03T09:07:53.640Z,2.35
2019-02-03T09:08:53.641Z,2.34
2019-02-03T09:09:53.683Z,2.41
2019-02-03T09:10:53.990Z,2.37
2019-02-03T09:11:53.769Z,2.49
2019-02-03T09:12:53.827Z,2.48
2019-02-03T09:13:55.630Z,2.48
2019-02-03T09:14:53.899Z,2.52
2019-02-03T09:15:53.927Z,2.51
2019-02-03T09:16:53.966Z,2.51
2019-02-03T09:17:54.022Z,2.49
2019-02-03T09:18:54.068Z,2.44
2019-02-03T09:19:54.084Z,2.59
2019-02-03T09:20:56.095Z,2.52
2019-02-03T09:21:54.173Z,2.53
2019-02-03T09:22:54.213Z,2.58
2019-02-03T09:23:54.260Z,2.51
2019-02-03T09:24:54.432Z,2.58
2019-02-03T09:25:54.321Z,2.49
2019-02-03T09:26:54.360Z,2.58
2019-02-03T09:27:54.983Z,2.59
2019-02-03T09:28:54.468Z,2.56
2019-02-03T09:29:54.509Z,2.56
2019-02-03T09:30:54.522Z,2.56
2019-02-03T09:31:54.653Z,2.59
2019-02-03T09:32:54.602Z,2.56
2019-02-03T09:33:54.895Z,2.55
2019-02-03T09:34:54.700Z,2.59
2019-02-03T09:35:54.804Z,2.58
2019-02-03T09:36:54.776Z,2.52
2019-02-03T09:37:54.862Z,2.46
2019-02-03T09:38:54.844Z,2.48
2019-02-03T09:39:54.908Z,2.58
2019-02-03T09:41:00.300Z,2.61
2019-02-03T09:41:54.969Z,2.44
2019-02-03T09:42:55.036Z,2.58
2019-02-03T09:43:55.049Z,2.61
2019-02-03T09:44:55.122Z,2.61
2019-02-03T09:45:55.170Z,2.59
2019-02-03T09:46:55.171Z,2.56
2019-02-03T09:47:55.217Z,2.53
2019-02-03T09:48:55.245Z,2.69
2019-02-03T09:49:55.284Z,2.74
2019-02-03T09:50:55.349Z,2.67
2019-02-03T09:51:55.372Z,2.71
2019-02-03T09:52:56.975Z,2.66
2019-02-03T09:53:56.271Z,2.61
2019-02-03T09:54:55.484Z,2.55
2019-02-03T09:55:55.555Z,2.69
2019-02-03T09:56:55.577Z,2.73
2019-02-03T09:57:56.283Z,2.58
2019-02-03T09:58:55.651Z,2.76
2019-02-03T09:59:57.888Z,2.69
2019-02-03T10:00:55.763Z,2.63
2019-02-03T10:01:55.768Z,2.59
2019-02-03T10:02:58.470Z,2.67
2019-02-03T10:03:55.845Z,2.55
2019-02-03T10:04:55.889Z,2.66
2019-02-03T10:05:55.959Z,2.67
2019-02-03T10:06:55.987Z,2.74
2019-02-03T10:07:56.035Z,2.71
2019-02-03T10:08:56.046Z,2.69
2019-02-03T10:09:56.099Z,2.64
2019-02-03T10:10:56.164Z,2.56
2019-02-03T10:11:56.164Z,2.63
2019-02-03T10:12:56.211Z,2.69
2019-02-03T10:13:56.247Z,2.70
2019-02-03T10:14:56.287Z,2.64
2019-02-03T10:15:56.430Z,2.69
2019-02-03T10:16:56.372Z,2.66
2019-02-03T10:17:56.409Z,2.69
2019-02-03T10:18:56.452Z,2.71
2019-02-03T10:19:56.492Z,2.71
2019-02-03T10:20:56.553Z,2.70
2019-02-03T10:21:56.617Z,2.69
2019-02-03T10:22:57.470Z,2.70
2019-02-03T10:23:56.647Z,2.69
2019-02-03T10:24:56.722Z,2.82
2019-02-03T10:25:56.754Z,2.84
2019-02-03T10:26:58.470Z,2.79
2019-02-03T10:27:56.824Z,2.82
2019-02-03T10:28:58.471Z,2.81
2019-02-03T10:29:56.892Z,2.74
2019-02-03T10:30:56.951Z,2.76
2019-02-03T10:31:57.488Z,2.69
2019-02-03T10:32:57.011Z,2.76
2019-02-03T10:33:57.058Z,2.76
2019-02-03T10:34:57.097Z,2.76
2019-02-03T10:35:57.135Z,2.69
2019-02-03T10:36:57.190Z,2.76
2019-02-03T10:37:57.270Z,2.81
2019-02-03T10:38:57.262Z,2.79
2019-02-03T10:39:57.294Z,2.85
2019-02-03T10:40:57.341Z,2.89
2019-02-03T10:41:57.407Z,2.88
2019-02-03T10:42:58.479Z,2.94
2019-02-03T10:43:57.449Z,3.00
2019-02-03T10:44:57.972Z,2.95
2019-02-03T10:45:57.546Z,2.95
2019-02-03T10:46:57.616Z,3.02
2019-02-03T10:47:58.274Z,2.97
2019-02-03T10:48:57.679Z,2.92
2019-02-03T10:49:57.703Z,3.00
2019-02-03T10:50:57.757Z,2.94
2019-02-03T10:51:57.840Z,3.02
2019-02-03T10:52:57.814Z,2.91
2019-02-03T10:53:58.773Z,2.95
2019-02-03T10:54:57.911Z,3.00
2019-02-03T10:55:57.942Z,2.97
2019-02-03T10:56:58.039Z,2.94
2019-02-03T10:57:58.035Z,2.95
2019-02-03T10:58:58.072Z,2.94
2019-02-03T10:59:59.973Z,2.97
2019-02-03T11:00:58.144Z,2.95
2019-02-03T11:01:58.221Z,2.89
2019-02-03T11:02:58.256Z,2.82
2019-02-03T11:03:58.269Z,2.88
2019-02-03T11:04:58.299Z,2.89
2019-02-03T11:05:59.533Z,2.84
2019-02-03T11:06:59.016Z,2.89
2019-02-03T11:07:58.458Z,2.97
2019-02-03T11:08:58.465Z,2.94
2019-02-03T11:09:58.507Z,2.92
2019-02-03T11:10:58.552Z,2.98
2019-02-03T11:11:58.971Z,2.95
2019-02-03T11:12:58.652Z,2.89
2019-02-03T11:13:58.662Z,2.94
2019-02-03T11:14:58.704Z,2.92
2019-02-03T11:15:58.745Z,2.95
2019-02-03T11:16:58.802Z,3.00
2019-02-03T11:17:58.843Z,2.89
2019-02-03T11:18:58.877Z,3.02
2019-02-03T11:19:58.939Z,2.97
2019-02-03T11:20:58.968Z,3.02
2019-02-03T11:21:59.471Z,2.94
2019-02-03T11:22:59.029Z,3.00
2019-02-03T11:23:59.099Z,3.02
2019-02-03T11:25:01.470Z,2.92
2019-02-03T11:26:00.225Z,2.89
2019-02-03T11:26:59.195Z,2.94
2019-02-03T11:27:59.251Z,2.92
2019-02-03T11:28:59.292Z,2.89
2019-02-03T11:29:59.329Z,2.97
2019-02-03T11:30:59.973Z,3.00
2019-02-03T11:31:59.397Z,3.00
2019-02-03T11:33:04.867Z,2.97
2019-02-03T11:33:59.587Z,3.05
2019-02-03T11:34:59.510Z,3.02
2019-02-03T11:35:59.552Z,2.98
2019-02-03T11:37:01.969Z,3.03
2019-02-03T11:38:00.467Z,2.97
2019-02-03T11:39:00.469Z,2.94
2019-02-03T11:39:59.722Z,2.95
2019-02-03T11:41:00.468Z,3.00
2019-02-03T11:41:59.796Z,3.00
2019-02-03T11:42:59.873Z,3.07
2019-02-03T11:43:59.898Z,3.05
2019-02-03T11:44:59.950Z,3.02
2019-02-03T11:45:59.954Z,2.92
2019-02-03T11:47:00.967Z,2.95
2019-02-03T11:48:00.043Z,2.98
2019-02-03T11:49:00.109Z,2.95
2019-02-03T11:50:00.306Z,2.91
2019-02-03T11:51:00.168Z,2.94
2019-02-03T11:52:00.196Z,3.00
2019-02-03T11:53:00.400Z,3.02
2019-02-03T11:54:00.422Z,2.91
2019-02-03T11:55:00.462Z,2.97
2019-02-03T11:56:00.362Z,2.98
2019-02-03T11:57:00.413Z,3.05
2019-02-03T11:58:01.470Z,3.00
2019-02-03T11:59:00.508Z,2.95
2019-02-03T12:00:01.471Z,3.03
2019-02-03T12:01:00.989Z,2.98
2019-02-03T12:02:00.604Z,3.03
2019-02-03T12:03:00.645Z,3.03
2019-02-03T12:04:00.687Z,3.07
2019-02-03T12:05:00.742Z,3.02
2019-02-03T12:06:00.787Z,3.15
2019-02-03T12:07:01.789Z,2.97
2019-02-03T12:08:00.916Z,2.94
2019-02-03T12:09:00.891Z,2.97
2019-02-03T12:10:00.932Z,2.95
2019-02-03T12:11:01.025Z,2.91
2019-02-03T12:12:01.786Z,2.97
2019-02-03T12:13:01.041Z,2.97
2019-02-03T12:14:01.093Z,2.97
2019-02-03T12:15:01.224Z,2.97
2019-02-03T12:16:01.188Z,2.98
2019-02-03T12:17:01.207Z,2.95
2019-02-03T12:18:01.265Z,3.05
2019-02-03T12:19:01.309Z,3.03
2019-02-03T12:20:01.340Z,3.05
2019-02-03T12:21:01.406Z,2.97
2019-02-03T12:22:01.491Z,2.94
2019-02-03T12:23:01.457Z,2.91
2019-02-03T12:24:01.998Z,2.89
2019-02-03T12:25:01.530Z,2.82
2019-02-03T12:26:01.605Z,2.76
2019-02-03T12:27:01.620Z,2.82
2019-02-03T12:28:01.648Z,2.92
2019-02-03T12:29:01.766Z,2.87
2019-02-03T12:30:01.740Z,2.79
2019-02-03T12:31:01.806Z,2.84
2019-02-03T12:32:03.469Z,2.84
2019-02-03T12:33:01.885Z,2.74
2019-02-03T12:34:01.893Z,2.71
2019-02-03T12:35:01.974Z,2.73
2019-02-03T12:36:02.011Z,2.67
2019-02-03T12:37:02.020Z,2.69
2019-02-03T12:38:02.067Z,2.64
2019-02-03T12:39:02.110Z,2.69
2019-02-03T12:40:02.998Z,2.56
2019-02-03T12:41:03.005Z,2.64
2019-02-03T12:42:12.792Z,2.69
2019-02-03T12:43:02.263Z,2.55
2019-02-03T12:44:02.295Z,2.70
2019-02-03T12:45:02.966Z,2.69
2019-02-03T12:46:02.383Z,2.73
2019-02-03T12:47:03.465Z,2.70
2019-02-03T12:48:02.480Z,2.67
2019-02-03T12:49:04.965Z,2.70
2019-02-03T12:50:03.464Z,2.63
2019-02-03T12:51:02.590Z,2.53
2019-02-03T12:52:02.668Z,2.63
2019-02-03T12:53:02.680Z,2.56
2019-02-03T12:54:02.705Z,2.49
2019-02-03T12:55:04.483Z,2.63
2019-02-03T12:56:02.786Z,2.56
2019-02-03T12:57:02.869Z,2.61
2019-02-03T12:58:02.866Z,2.49
2019-02-03T12:59:02.924Z,2.49
2019-02-03T13:00:02.970Z,2.48
2019-02-03T13:01:03.970Z,2.44
2019-02-03T13:02:03.056Z,2.35
2019-02-03T13:03:03.779Z,2.38
2019-02-03T13:04:03.109Z,2.37
2019-02-03T13:05:03.145Z,2.33
2019-02-03T13:06:03.209Z,2.27
2019-02-03T13:07:03.225Z,2.26
2019-02-03T13:08:03.302Z,2.28
2019-02-03T13:09:07.436Z,2.22
2019-02-03T13:10:03.354Z,2.20
2019-02-03T13:11:03.396Z,2.10
2019-02-03T13:12:03.472Z,2.19
2019-02-03T13:13:03.484Z,2.09
2019-02-03T13:14:03.553Z,2.10
2019-02-03T13:15:03.542Z,2.09
2019-02-03T13:16:03.592Z,2.10
2019-02-03T13:17:03.627Z,2.10
2019-02-03T13:18:03.664Z,2.06
2019-02-03T13:19:03.729Z,1.98